Maxeys, Georgia
Current Conditions -  °F | °C
As of 5:15 AM on Tuesday 27 Jan 2015 (Local Time) from K3J7 Reporting Station
Broken Clouds Broken Clouds  
Wind Chill: 32°   Ceiling: 6500
Heat Index: 36°   Visibility: 10mi
Dew Point: 32°   Wind: 5mph
Humidity: 87%   Direction: 240°WSW
Pressure: 29.83"   Gusts: NA
Location:  33.75°N, 83.17°W
Report Text: K3J7 271015Z AUTO 24004KT 10SM BKN065 02/00 A2983 RMK AO2
Loading
Personal Weather Stations






























Interactive Weather Map New forecast layout! Learn more

10-Day Weather Forecast

Advertisements
Track Severe Weather on mobile